createdAt,value
2023-05-11T00:01:12.353Z,97905.16
2023-05-11T00:05:14.794Z,97905.88
2023-05-11T00:09:16.879Z,97896.94
2023-05-11T00:13:20.446Z,97898.03
2023-05-11T00:17:22.637Z,97886.25
2023-05-11T00:21:25.376Z,97875.53
2023-05-11T00:25:27.449Z,97886.25
2023-05-11T00:29:29.456Z,97882.66
2023-05-11T00:33:31.779Z,97893.75
2023-05-11T00:37:34.060Z,97885.13
2023-05-11T00:41:36.563Z,97884.03
2023-05-11T00:45:40.044Z,97893.34
2023-05-11T00:49:42.449Z,97886.63
2023-05-11T00:53:44.492Z,97893.84
2023-05-11T00:57:46.753Z,97892.56
2023-05-11T01:01:48.928Z,97897.91
2023-05-11T01:06:19.625Z,97893.66
2023-05-11T01:10:48.931Z,97894.56
2023-05-11T01:15:17.207Z,97892.97
2023-05-11T01:19:39.797Z,97893.56
2023-05-11T01:23:59.520Z,97893.84
2023-05-11T01:28:27.761Z,97904.47
2023-05-11T01:32:34.414Z,97904.69
2023-05-11T01:36:44.785Z,97902.31
2023-05-11T01:40:54.505Z,97904.84
2023-05-11T01:44:58.312Z,97904.84
2023-05-11T01:49:06.873Z,97896.53
2023-05-11T01:53:12.316Z,97905.06
2023-05-11T01:57:16.647Z,97903.59
2023-05-11T02:01:19.864Z,97909.50
2023-05-11T02:05:24.936Z,97912.19
2023-05-11T02:09:34.260Z,97903.31
2023-05-11T02:13:43.676Z,97901.56
2023-05-11T02:17:46.191Z,97899.75
2023-05-11T02:21:51.919Z,97898.72
2023-05-11T02:25:55.577Z,97900.47
2023-05-11T02:29:58.282Z,97905.81
2023-05-11T02:34:07.695Z,97907.13
2023-05-11T02:38:11.843Z,97893.72
2023-05-11T02:42:15.492Z,97911.84
2023-05-11T02:46:21.729Z,97906.50
2023-05-11T02:50:27.229Z,97903.41
2023-05-11T02:54:32.161Z,97914.63
2023-05-11T02:58:35.678Z,97907.63
2023-05-11T03:03:07.560Z,97907.84
2023-05-11T03:07:10.504Z,97905.59
2023-05-11T03:11:15.142Z,97906.69
2023-05-11T03:15:18.105Z,97907.75
2023-05-11T03:19:24.089Z,97908.16
2023-05-11T03:23:28.239Z,97915.13
2023-05-11T03:27:32.191Z,97902.69
2023-05-11T03:31:35.085Z,97898.69
2023-05-11T03:35:40.001Z,97906.69
2023-05-11T03:39:45.754Z,97912.81
2023-05-11T03:43:51.938Z,97913.19
2023-05-11T03:47:57.605Z,97901.22
2023-05-11T03:52:00.392Z,97909.22
2023-05-11T03:56:04.631Z,97913.19
2023-05-11T04:00:08.381Z,97918.03
2023-05-11T04:04:17.392Z,97925.56
2023-05-11T04:08:19.577Z,97922.63
2023-05-11T04:12:21.896Z,97924.78
2023-05-11T04:16:24.057Z,97930.63
2023-05-11T04:20:26.348Z,97929.53
2023-05-11T04:24:28.475Z,97926.34
2023-05-11T04:28:30.583Z,97931.63
2023-05-11T04:32:33.250Z,97931.34
2023-05-11T04:36:35.498Z,97945.66
2023-05-11T04:40:38.170Z,97945.00
2023-05-11T04:44:41.013Z,97934.81
2023-05-11T04:48:43.482Z,97937.97
2023-05-11T04:52:46.889Z,97933.84
2023-05-11T04:56:49.012Z,97940.97
2023-05-11T05:00:51.644Z,97938.66
2023-05-11T05:04:54.412Z,97936.88
2023-05-11T05:08:56.830Z,97932.78
2023-05-11T05:12:59.023Z,97933.81
2023-05-11T05:17:01.707Z,97941.66
2023-05-11T05:21:04.854Z,97941.22
2023-05-11T05:25:07.980Z,97940.00
2023-05-11T05:29:10.260Z,97936.97
2023-05-11T05:33:13.546Z,97950.53
2023-05-11T05:37:16.202Z,97948.75
2023-05-11T05:41:18.914Z,97944.16
2023-05-11T05:45:22.664Z,97946.38
2023-05-11T05:49:26.441Z,97947.00
2023-05-11T05:53:28.654Z,97952.47
2023-05-11T05:57:30.865Z,97954.16
2023-05-11T06:01:33.676Z,97945.44
2023-05-11T06:05:35.797Z,97947.56
2023-05-11T06:09:39.424Z,97949.34
2023-05-11T06:13:41.682Z,97942.94
2023-05-11T06:17:44.755Z,97939.16
2023-05-11T06:21:48.651Z,97941.63
2023-05-11T06:25:51.172Z,97943.19
2023-05-11T06:29:55.722Z,97943.09
2023-05-11T06:33:57.867Z,97952.06
2023-05-11T06:38:03.222Z,97952.81
2023-05-11T06:42:06.754Z,97946.00
2023-05-11T06:46:10.320Z,97948.38
2023-05-11T06:50:12.442Z,97955.94
2023-05-11T06:54:14.515Z,97950.25
2023-05-11T06:58:20.583Z,97956.31
2023-05-11T07:02:22.800Z,97944.91
2023-05-11T07:06:24.821Z,97945.63
2023-05-11T07:10:27.105Z,97948.75
2023-05-11T07:14:29.152Z,97968.13
2023-05-11T07:18:31.812Z,97962.84
2023-05-11T07:22:33.941Z,97960.78
2023-05-11T07:26:36.033Z,97973.31
2023-05-11T07:30:38.119Z,97966.47
2023-05-11T07:34:41.270Z,97971.16
2023-05-11T07:38:43.401Z,97967.28
2023-05-11T07:42:45.550Z,97966.16
2023-05-11T07:46:47.830Z,97965.25
2023-05-11T07:50:49.984Z,97955.44
2023-05-11T07:54:52.634Z,97960.97
2023-05-11T07:58:54.723Z,97970.09
2023-05-11T08:02:56.985Z,97972.31
2023-05-11T08:06:59.143Z,97972.44
2023-05-11T08:11:01.929Z,97968.97
2023-05-11T08:15:05.613Z,97970.38
2023-05-11T08:19:08.209Z,97971.91
2023-05-11T08:23:11.036Z,97971.81
2023-05-11T08:27:15.363Z,97979.34
2023-05-11T08:31:18.619Z,97974.63
2023-05-11T08:35:21.578Z,97967.03
2023-05-11T08:39:38.881Z,97965.38
2023-05-11T08:43:47.405Z,97966.34
2023-05-11T08:47:49.866Z,97963.44
2023-05-11T08:51:52.192Z,97964.53
2023-05-11T08:55:58.415Z,97962.16
2023-05-11T09:00:03.124Z,97956.47
2023-05-11T09:04:06.956Z,97953.06
2023-05-11T09:08:12.810Z,97958.50
2023-05-11T09:12:16.478Z,97966.16
2023-05-11T09:16:33.003Z,97969.88
2023-05-11T09:20:43.779Z,97964.53
2023-05-11T09:24:46.733Z,97967.44
2023-05-11T09:29:03.678Z,97968.25
2023-05-11T09:33:06.938Z,97970.97
2023-05-11T09:37:16.762Z,97963.09
2023-05-11T09:41:20.472Z,97966.03
2023-05-11T09:45:43.078Z,97958.53
2023-05-11T09:49:47.776Z,97961.88
2023-05-11T09:53:49.946Z,97960.91
2023-05-11T09:57:59.898Z,97966.75
2023-05-11T10:02:17.394Z,97959.63
2023-05-11T10:06:20.470Z,97957.94
2023-05-11T10:10:22.934Z,97953.47
2023-05-11T10:14:27.001Z,97954.34
2023-05-11T10:18:29.320Z,97945.28
2023-05-11T10:22:31.659Z,97945.13
2023-05-11T10:26:33.898Z,97947.78
2023-05-11T10:30:37.341Z,97933.59
2023-05-11T10:34:39.997Z,97921.56
2023-05-11T10:38:42.295Z,97918.09
2023-05-11T10:43:13.685Z,97911.84
2023-05-11T10:47:22.242Z,97905.59
2023-05-11T10:51:52.611Z,97902.38
2023-05-11T10:56:17.900Z,97903.28
2023-05-11T11:00:31.635Z,97897.41
2023-05-11T11:04:50.859Z,97882.41
2023-05-11T11:09:03.496Z,97875.44
2023-05-11T11:13:11.692Z,97883.97
2023-05-11T11:17:25.764Z,97872.34
2023-05-11T11:21:41.683Z,97863.59
2023-05-11T11:25:53.035Z,97856.25
2023-05-11T11:30:17.917Z,97847.66
2023-05-11T11:34:29.272Z,97848.91
2023-05-11T11:38:33.220Z,97847.47
2023-05-11T11:42:37.752Z,97841.00
2023-05-11T11:46:39.761Z,97850.22
2023-05-11T11:50:47.977Z,97844.56
2023-05-11T11:54:50.261Z,97850.56
2023-05-11T11:58:52.443Z,97845.44
2023-05-11T12:02:55.632Z,97837.69
2023-05-11T12:06:59.080Z,97833.22
2023-05-11T12:11:02.233Z,97831.56
2023-05-11T12:15:06.810Z,97828.56
2023-05-11T12:19:09.435Z,97846.94
2023-05-11T12:23:12.684Z,97877.66
2023-05-11T12:33:28.610Z,97899.91
2023-05-11T12:37:32.612Z,97898.66
2023-05-11T12:41:39.486Z,97919.69
2023-05-11T12:45:52.393Z,97926.63
2023-05-11T13:01:02.899Z,97928.84
2023-05-11T13:10:27.069Z,97928.91
2023-05-11T13:14:47.854Z,97912.72
2023-05-11T13:19:17.410Z,97913.84
2023-05-11T13:28:28.743Z,97905.97
2023-05-11T13:32:55.888Z,97901.91
2023-05-11T13:37:09.068Z,97889.78
2023-05-11T13:41:22.663Z,97886.00
2023-05-11T13:45:34.278Z,97903.41
2023-05-11T13:49:41.035Z,97912.81
2023-05-11T13:53:51.609Z,97914.38
2023-05-11T13:58:01.460Z,97921.47
2023-05-11T14:02:08.056Z,97917.28
2023-05-11T14:06:29.868Z,97909.50
2023-05-11T14:10:35.694Z,97907.22
2023-05-11T14:14:41.960Z,97897.81
2023-05-11T14:19:05.331Z,97886.97
2023-05-11T14:23:12.455Z,97883.38
2023-05-11T14:27:22.366Z,97870.94
2023-05-11T14:31:40.348Z,97870.13
2023-05-11T14:35:56.745Z,97867.47
2023-05-11T14:40:03.961Z,97854.84
2023-05-11T14:44:15.114Z,97845.84
2023-05-11T14:48:23.306Z,97842.59
2023-05-11T14:52:36.277Z,97846.59
2023-05-11T14:57:09.262Z,97853.75
2023-05-11T15:01:24.238Z,97842.44
2023-05-11T15:05:39.633Z,97834.28
2023-05-11T15:09:50.829Z,97842.88
2023-05-11T15:14:02.477Z,97851.22
2023-05-11T15:18:08.079Z,97857.72
2023-05-11T15:22:23.341Z,97847.69
2023-05-11T15:26:36.982Z,97848.19
2023-05-11T15:30:56.329Z,97848.25
2023-05-11T15:35:10.377Z,97851.06
2023-05-11T15:39:44.064Z,97855.97
2023-05-11T15:44:05.401Z,97865.50
2023-05-11T15:48:12.549Z,97869.75
2023-05-11T16:04:15.783Z,97879.50
2023-05-11T16:08:19.089Z,97874.38
2023-05-11T16:12:21.909Z,97878.44
2023-05-11T16:16:24.674Z,97881.22
2023-05-11T16:20:27.526Z,97889.44
2023-05-11T16:24:34.580Z,97894.28
2023-05-11T16:28:37.993Z,97906.63
2023-05-11T16:32:44.270Z,97906.81
2023-05-11T16:36:58.748Z,97910.41
2023-05-11T16:41:07.443Z,97904.63
2023-05-11T16:45:10.960Z,97927.72
2023-05-11T16:49:18.901Z,97930.06
2023-05-11T16:53:35.598Z,97920.09
2023-05-11T16:58:08.214Z,97924.38
2023-05-11T17:02:18.000Z,97928.81
2023-05-11T17:06:33.249Z,97923.50
2023-05-11T17:10:39.513Z,97926.00
2023-05-11T17:14:54.726Z,97929.81
2023-05-11T17:19:01.822Z,97933.44
2023-05-11T17:23:09.420Z,97935.81
2023-05-11T17:27:26.982Z,97925.31
2023-05-11T17:31:42.845Z,97937.09
2023-05-11T17:35:53.684Z,97951.28
2023-05-11T17:40:05.612Z,97951.56
2023-05-11T17:44:19.974Z,97948.06
2023-05-11T17:48:41.880Z,97958.88
2023-05-11T17:52:51.652Z,97985.13
2023-05-11T17:57:08.277Z,97995.16
2023-05-11T18:01:15.976Z,98003.00
2023-05-11T18:05:33.294Z,97998.34
2023-05-11T18:09:54.899Z,98011.63
2023-05-11T18:14:08.786Z,98014.47
2023-05-11T18:18:30.085Z,98017.69
2023-05-11T18:22:53.924Z,98014.25
2023-05-11T18:27:06.660Z,98016.81
2023-05-11T18:31:33.132Z,98018.66
2023-05-11T18:36:14.913Z,98016.28
2023-05-11T18:40:35.704Z,98029.00
2023-05-11T18:44:53.023Z,98045.44
2023-05-11T18:49:09.738Z,98042.50
2023-05-11T18:53:21.898Z,98042.84
2023-05-11T18:57:38.791Z,98037.59
2023-05-11T19:01:54.639Z,98043.75
2023-05-11T19:06:18.897Z,98046.72
2023-05-11T19:10:26.206Z,98048.50
2023-05-11T19:14:47.927Z,98056.03
2023-05-11T19:19:10.453Z,98068.34
2023-05-11T19:23:24.145Z,98069.03
2023-05-11T19:27:36.760Z,98075.47
2023-05-11T19:31:48.990Z,98085.38
2023-05-11T19:36:13.609Z,98088.34
2023-05-11T19:44:46.471Z,98111.63
2023-05-11T19:49:22.097Z,98109.94
2023-05-11T19:53:34.933Z,98113.38
2023-05-11T19:58:00.700Z,98123.94
2023-05-11T20:02:31.917Z,98116.69
2023-05-11T20:06:57.918Z,98121.19
2023-05-11T20:11:41.851Z,98120.97
2023-05-11T20:15:56.420Z,98128.09
2023-05-11T20:20:07.347Z,98135.03
2023-05-11T20:24:27.904Z,98144.34
2023-05-11T20:28:44.262Z,98156.22
2023-05-11T20:37:28.916Z,98174.53
2023-05-11T20:41:49.517Z,98174.75
2023-05-11T20:46:18.454Z,98168.25
2023-05-11T20:50:40.912Z,98173.59
2023-05-11T20:54:58.425Z,98163.38
2023-05-11T20:59:07.728Z,98171.91
2023-05-11T21:03:22.077Z,98167.94
2023-05-11T21:07:33.116Z,98160.31
2023-05-11T21:11:48.002Z,98168.66
2023-05-11T21:16:09.083Z,98159.53
2023-05-11T21:20:35.396Z,98159.97
2023-05-11T21:24:48.770Z,98167.75
2023-05-11T21:29:13.022Z,98174.00
2023-05-11T21:33:26.956Z,98191.75
2023-05-11T21:37:47.534Z,98183.28
2023-05-11T21:42:21.483Z,98190.56
2023-05-11T21:46:38.113Z,98181.41
2023-05-11T21:50:51.901Z,98182.88
2023-05-11T21:59:35.299Z,98183.06
2023-05-11T22:03:48.188Z,98185.44
2023-05-11T22:08:14.973Z,98193.53
2023-05-11T22:12:32.617Z,98210.38
2023-05-11T22:16:55.518Z,98198.03
2023-05-11T22:21:05.333Z,98199.81
2023-05-11T22:25:21.986Z,98201.13
2023-05-11T22:29:37.647Z,98196.63
2023-05-11T22:33:46.870Z,98194.56
2023-05-11T22:38:01.917Z,98193.53
2023-05-11T22:42:24.079Z,98190.94
2023-05-11T22:46:28.441Z,98188.03
2023-05-11T22:50:52.127Z,98184.56
2023-05-11T22:55:18.624Z,98182.25
2023-05-11T22:59:47.243Z,98181.91
2023-05-11T23:04:36.209Z,98178.72
2023-05-11T23:08:56.043Z,98184.09
2023-05-11T23:13:14.299Z,98195.06
2023-05-11T23:17:37.305Z,98186.28
2023-05-11T23:22:08.409Z,98184.75
2023-05-11T23:26:30.015Z,98201.81
2023-05-11T23:31:15.398Z,98196.72
2023-05-11T23:35:39.487Z,98194.50
2023-05-11T23:51:05.781Z,98188.03
2023-05-11T23:55:35.542Z,98197.09
